Haines Falls, New York
Current Conditions -  °F | °C
As of 2:53 PM on Saturday 25 Oct 2014 (Local Time) from KPOU Reporting Station
Few Clouds Few Clouds  
Wind Chill: 65°   Ceiling: Unl
Heat Index: 65°   Visibility: 10mi
Dew Point: 42°   Wind: 16mph
Humidity: 43%   Direction: 250°WSW
Pressure: 29.68"   Gusts: NA
Location:  42.2°N, 74.1°W
Report Text: KPOU 251853Z 25014KT 10SM FEW050 18/06 A2968 RMK AO2 SLP046 T01830056
Loading
Personal Weather Stations






























Interactive Weather Map
Tropical Storm Tracking
New forecast layout! Learn more

10-Day Weather Forecast

Advertisements
Track Severe Weather on mobile